GFA462 OKKK-OBBI
Flight info
| Callsign | GFA462 |
|---|---|
| Flight time | 0h 51m |
| Altitude | 27000 |
| Route | BOXIK B416 IMDOX P975 LONOS L703 KOBOK |
| Aircraft | A320/M-SDE3FGHIRWY/LB1 |
Departure
| Time | 2026-04-27 17:10 |
|---|---|
| Airport | Kuwait International Airport (OKKK) |
Arrival
| Time | 2026-04-27 18:02 |
|---|---|
| Airport | Bahrain International Airport (OBBI) |
| Time | Latitude | Longitude | Altitude | Speed | Heading |
|---|---|---|---|---|---|
| 2026-04-27 16:46 | 29.23769 | 47.97176 | 167 ft | 0 kts | 64° |
| 2026-04-27 16:58 | 29.23760 | 47.97154 | 167 ft | 3 kts | 64° |
| 2026-04-27 16:59 | 29.23751 | 47.97132 | 167 ft | 2 kts | 64° |
| 2026-04-27 16:59 | 29.23738 | 47.97110 | 167 ft | 3 kts | 37° |
| 2026-04-27 16:59 | 29.23719 | 47.97101 | 167 ft | 3 kts | 351° |
| 2026-04-27 16:59 | 29.23696 | 47.97110 | 167 ft | 3 kts | 335° |
| 2026-04-27 17:00 | 29.23676 | 47.97120 | 167 ft | 0 kts | 335° |
| 2026-04-27 17:02 | 29.23681 | 47.97117 | 167 ft | 4 kts | 331° |
| 2026-04-27 17:03 | 29.23731 | 47.97088 | 167 ft | 10 kts | 333° |
| 2026-04-27 17:03 | 29.23788 | 47.97050 | 167 ft | 9 kts | 320° |
| 2026-04-27 17:03 | 29.23801 | 47.96991 | 167 ft | 7 kts | 248° |
| 2026-04-27 17:03 | 29.23770 | 47.96949 | 167 ft | 6 kts | 226° |
| 2026-04-27 17:04 | 29.23749 | 47.96912 | 167 ft | 5 kts | 251° |
| 2026-04-27 17:04 | 29.23742 | 47.96870 | 167 ft | 8 kts | 261° |
| 2026-04-27 17:04 | 29.23719 | 47.96784 | 167 ft | 15 kts | 242° |
| 2026-04-27 17:04 | 29.23653 | 47.96674 | 168 ft | 16 kts | 235° |
| 2026-04-27 17:05 | 29.23690 | 47.96586 | 167 ft | 17 kts | 335° |
| 2026-04-27 17:05 | 29.23809 | 47.96527 | 166 ft | 21 kts | 336° |
| 2026-04-27 17:05 | 29.23950 | 47.96453 | 165 ft | 23 kts | 335° |
| 2026-04-27 17:05 | 29.24045 | 47.96402 | 165 ft | 16 kts | 335° |
| 2026-04-27 17:06 | 29.24094 | 47.96332 | 166 ft | 9 kts | 246° |
| 2026-04-27 17:06 | 29.24074 | 47.96287 | 167 ft | 0 kts | 244° |
| 2026-04-27 17:07 | 29.24069 | 47.96275 | 167 ft | 4 kts | 244° |
| 2026-04-27 17:07 | 29.24049 | 47.96228 | 171 ft | 10 kts | 244° |
| 2026-04-27 17:08 | 29.24008 | 47.96177 | 173 ft | 8 kts | 191° |
| 2026-04-27 17:08 | 29.23976 | 47.96191 | 173 ft | 0 kts | 155° |
| 2026-04-27 17:09 | 29.23956 | 47.96201 | 173 ft | 13 kts | 156° |
| 2026-04-27 17:09 | 29.23719 | 47.96328 | 182 ft | 71 kts | 154° |
| 2026-04-27 17:10 | 29.23080 | 47.96670 | 201 ft | 130 kts | 155° |
| 2026-04-27 17:10 | 29.22123 | 47.97187 | 331 ft | 164 kts | 155° |
| 2026-04-27 17:10 | 29.21073 | 47.97740 | 896 ft | 167 kts | 155° |
| 2026-04-27 17:10 | 29.20144 | 47.98534 | 1593 ft | 170 kts | 125° |
| 2026-04-27 17:11 | 29.19807 | 47.99847 | 2187 ft | 180 kts | 103° |
| 2026-04-27 17:11 | 29.18710 | 48.02740 | 2729 ft | 222 kts | 123° |
| 2026-04-27 17:11 | 29.17891 | 48.04352 | 3080 ft | 247 kts | 123° |
| 2026-04-27 17:12 | 29.16054 | 48.08084 | 3958 ft | 293 kts | 122° |
| 2026-04-27 17:12 | 29.15195 | 48.10269 | 4576 ft | 312 kts | 105° |
| 2026-04-27 17:12 | 29.15025 | 48.12791 | 5352 ft | 322 kts | 93° |
| 2026-04-27 17:13 | 29.15012 | 48.15373 | 6179 ft | 328 kts | 91° |
| 2026-04-27 17:13 | 29.15035 | 48.18007 | 6951 ft | 334 kts | 90° |
| 2026-04-27 17:13 | 29.15067 | 48.20681 | 7751 ft | 339 kts | 90° |
| 2026-04-27 17:13 | 29.15093 | 48.23400 | 8576 ft | 344 kts | 90° |
| 2026-04-27 17:14 | 29.15109 | 48.26148 | 9417 ft | 348 kts | 90° |
| 2026-04-27 17:14 | 29.15117 | 48.28935 | 10209 ft | 352 kts | 90° |
| 2026-04-27 17:14 | 29.14908 | 48.31733 | 10971 ft | 356 kts | 103° |
| 2026-04-27 17:14 | 29.14128 | 48.34421 | 11732 ft | 358 kts | 116° |
| 2026-04-27 17:15 | 29.12876 | 48.36843 | 12494 ft | 360 kts | 128° |
| 2026-04-27 17:15 | 29.11253 | 48.39032 | 13243 ft | 362 kts | 133° |
| 2026-04-27 17:15 | 29.09580 | 48.41205 | 13977 ft | 366 kts | 133° |
| 2026-04-27 17:15 | 29.07894 | 48.43407 | 14638 ft | 370 kts | 134° |
| 2026-04-27 17:16 | 29.06195 | 48.45631 | 15294 ft | 373 kts | 134° |
| 2026-04-27 17:16 | 29.04475 | 48.47883 | 15940 ft | 377 kts | 134° |
| 2026-04-27 17:16 | 29.02744 | 48.50154 | 16574 ft | 382 kts | 134° |
| 2026-04-27 17:16 | 29.00990 | 48.52455 | 17203 ft | 386 kts | 135° |
| 2026-04-27 17:17 | 28.99212 | 48.54783 | 17821 ft | 391 kts | 135° |
| 2026-04-27 17:17 | 28.97410 | 48.57134 | 18400 ft | 395 kts | 135° |
| 2026-04-27 17:17 | 28.95591 | 48.59503 | 18940 ft | 399 kts | 136° |
| 2026-04-27 17:18 | 28.92521 | 48.63494 | 19844 ft | 405 kts | 136° |
| 2026-04-27 17:18 | 28.90652 | 48.65925 | 20395 ft | 409 kts | 136° |
| 2026-04-27 17:18 | 28.88766 | 48.68378 | 20934 ft | 413 kts | 136° |
| 2026-04-27 17:18 | 28.86867 | 48.70850 | 21446 ft | 416 kts | 136° |
| 2026-04-27 17:19 | 28.84952 | 48.73343 | 21969 ft | 419 kts | 137° |
| 2026-04-27 17:19 | 28.83023 | 48.75849 | 22500 ft | 422 kts | 137° |
| 2026-04-27 17:19 | 28.81090 | 48.78387 | 23019 ft | 427 kts | 134° |
| 2026-04-27 17:19 | 28.79408 | 48.81216 | 23504 ft | 436 kts | 124° |
| 2026-04-27 17:20 | 28.77927 | 48.84247 | 23914 ft | 440 kts | 124° |
| 2026-04-27 17:20 | 28.76433 | 48.87311 | 24314 ft | 443 kts | 124° |
| 2026-04-27 17:20 | 28.74929 | 48.90389 | 24717 ft | 446 kts | 124° |
| 2026-04-27 17:20 | 28.73413 | 48.93488 | 25118 ft | 449 kts | 124° |
| 2026-04-27 17:21 | 28.71888 | 48.96603 | 25481 ft | 452 kts | 124° |
| 2026-04-27 17:21 | 28.70348 | 48.99744 | 25866 ft | 455 kts | 124° |
| 2026-04-27 17:21 | 28.68797 | 49.02899 | 26241 ft | 459 kts | 124° |
| 2026-04-27 17:21 | 28.67217 | 49.06100 | 26387 ft | 468 kts | 124° |
| 2026-04-27 17:22 | 28.65612 | 49.09345 | 26654 ft | 473 kts | 124° |
| 2026-04-27 17:22 | 28.63993 | 49.12623 | 26859 ft | 475 kts | 124° |
| 2026-04-27 17:22 | 28.62390 | 49.15877 | 26896 ft | 467 kts | 124° |
| 2026-04-27 17:22 | 28.60808 | 49.19076 | 26902 ft | 462 kts | 126° |
| 2026-04-27 17:23 | 28.58966 | 49.22022 | 26890 ft | 452 kts | 137° |
| 2026-04-27 17:23 | 28.56767 | 49.24532 | 26899 ft | 445 kts | 147° |
| 2026-04-27 17:23 | 28.54285 | 49.26574 | 26898 ft | 436 kts | 156° |
| 2026-04-27 17:23 | 28.51628 | 49.28186 | 26899 ft | 433 kts | 159° |
| 2026-04-27 17:24 | 28.49113 | 49.30139 | 26898 ft | 445 kts | 146° |
| 2026-04-27 17:24 | 28.46809 | 49.32500 | 27804 ft | 447 kts | 141° |
| 2026-04-27 17:24 | 28.44497 | 49.34875 | 26884 ft | 446 kts | 144° |
| 2026-04-27 17:24 | 28.42185 | 49.37223 | 26863 ft | 446 kts | 145° |
| 2026-04-27 17:25 | 28.39853 | 49.39557 | 26861 ft | 447 kts | 146° |
| 2026-04-27 17:25 | 28.37513 | 49.41873 | 26861 ft | 447 kts | 146° |
| 2026-04-27 17:25 | 28.35162 | 49.44190 | 26864 ft | 447 kts | 146° |
| 2026-04-27 17:25 | 28.32812 | 49.46505 | 26861 ft | 447 kts | 146° |
| 2026-04-27 17:26 | 28.30462 | 49.48818 | 26860 ft | 447 kts | 146° |
| 2026-04-27 17:26 | 28.28119 | 49.51128 | 26862 ft | 447 kts | 146° |
| 2026-04-27 17:26 | 28.25770 | 49.53444 | 26851 ft | 447 kts | 146° |
| 2026-04-27 17:26 | 28.23425 | 49.55757 | 26851 ft | 447 kts | 146° |
| 2026-04-27 17:27 | 28.21064 | 49.58058 | 26849 ft | 446 kts | 148° |
| 2026-04-27 17:27 | 28.18658 | 49.60255 | 26848 ft | 444 kts | 150° |
| 2026-04-27 17:27 | 28.16206 | 49.62367 | 26847 ft | 442 kts | 151° |
| 2026-04-27 17:27 | 28.13732 | 49.64431 | 26848 ft | 442 kts | 152° |
| 2026-04-27 17:28 | 28.11250 | 49.66488 | 26849 ft | 442 kts | 151° |
| 2026-04-27 17:28 | 28.08774 | 49.68553 | 26830 ft | 442 kts | 151° |
| 2026-04-27 17:28 | 28.03854 | 49.72723 | 26832 ft | 441 kts | 152° |
| 2026-04-27 17:29 | 28.01375 | 49.74743 | 26837 ft | 440 kts | 153° |
| 2026-04-27 17:29 | 27.98855 | 49.76717 | 26840 ft | 440 kts | 153° |
| 2026-04-27 17:29 | 27.96316 | 49.78659 | 26833 ft | 439 kts | 154° |
| 2026-04-27 17:29 | 27.93778 | 49.80586 | 26835 ft | 440 kts | 154° |
| 2026-04-27 17:30 | 27.91245 | 49.82515 | 26815 ft | 440 kts | 154° |
| 2026-04-27 17:30 | 27.86195 | 49.86408 | 26814 ft | 439 kts | 153° |
| 2026-04-27 17:30 | 27.83673 | 49.88369 | 26815 ft | 439 kts | 153° |
| 2026-04-27 17:31 | 27.81162 | 49.90322 | 26818 ft | 439 kts | 153° |
| 2026-04-27 17:31 | 27.78646 | 49.92276 | 26816 ft | 439 kts | 153° |
| 2026-04-27 17:31 | 27.76131 | 49.94226 | 26811 ft | 439 kts | 153° |
| 2026-04-27 17:31 | 27.73616 | 49.96173 | 26815 ft | 439 kts | 154° |
| 2026-04-27 17:32 | 27.71095 | 49.98121 | 26797 ft | 439 kts | 153° |
| 2026-04-27 17:32 | 27.66093 | 50.01988 | 26315 ft | 434 kts | 153° |
| 2026-04-27 17:32 | 27.63605 | 50.03907 | 26073 ft | 432 kts | 153° |
| 2026-04-27 17:33 | 27.61161 | 50.05792 | 25834 ft | 430 kts | 153° |
| 2026-04-27 17:33 | 27.58668 | 50.07715 | 25598 ft | 429 kts | 153° |
| 2026-04-27 17:33 | 27.56210 | 50.09611 | 25294 ft | 425 kts | 153° |
| 2026-04-27 17:33 | 27.53785 | 50.11482 | 24759 ft | 421 kts | 153° |
| 2026-04-27 17:34 | 27.51402 | 50.13318 | 24255 ft | 419 kts | 153° |
| 2026-04-27 17:34 | 27.48974 | 50.15183 | 23744 ft | 416 kts | 153° |
| 2026-04-27 17:34 | 27.46589 | 50.17015 | 23186 ft | 414 kts | 153° |
| 2026-04-27 17:34 | 27.44250 | 50.18812 | 22695 ft | 410 kts | 153° |
| 2026-04-27 17:35 | 27.41920 | 50.20646 | 22229 ft | 407 kts | 151° |
| 2026-04-27 17:35 | 27.39632 | 50.22498 | 21733 ft | 404 kts | 150° |
| 2026-04-27 17:35 | 27.37367 | 50.24356 | 21241 ft | 402 kts | 150° |
| 2026-04-27 17:35 | 27.35117 | 50.26206 | 20744 ft | 400 kts | 150° |
| 2026-04-27 17:36 | 27.32874 | 50.28042 | 20241 ft | 398 kts | 150° |
| 2026-04-27 17:36 | 27.30636 | 50.29865 | 19736 ft | 397 kts | 149° |
| 2026-04-27 17:36 | 27.28396 | 50.31679 | 19218 ft | 396 kts | 149° |
| 2026-04-27 17:36 | 27.26165 | 50.33481 | 18710 ft | 395 kts | 149° |
| 2026-04-27 17:37 | 27.23958 | 50.35265 | 18507 ft | 385 kts | 149° |
| 2026-04-27 17:37 | 27.21823 | 50.36995 | 18385 ft | 372 kts | 149° |
| 2026-04-27 17:37 | 27.19776 | 50.38652 | 18192 ft | 355 kts | 149° |
| 2026-04-27 17:37 | 27.17797 | 50.40250 | 17670 ft | 347 kts | 149° |
| 2026-04-27 17:38 | 27.15842 | 50.41821 | 17106 ft | 343 kts | 149° |
| 2026-04-27 17:38 | 27.13909 | 50.43374 | 16525 ft | 341 kts | 149° |
| 2026-04-27 17:38 | 27.11992 | 50.44917 | 15965 ft | 338 kts | 148° |
| 2026-04-27 17:38 | 27.10085 | 50.46451 | 15415 ft | 337 kts | 148° |
| 2026-04-27 17:39 | 27.08137 | 50.48015 | 14741 ft | 348 kts | 148° |
| 2026-04-27 17:39 | 27.06199 | 50.49575 | 14608 ft | 338 kts | 148° |
| 2026-04-27 17:39 | 27.04307 | 50.51103 | 14397 ft | 333 kts | 148° |
| 2026-04-27 17:39 | 27.02562 | 50.52795 | 14100 ft | 334 kts | 132° |
| 2026-04-27 17:40 | 27.01395 | 50.55040 | 13837 ft | 335 kts | 110° |
| 2026-04-27 17:40 | 27.01019 | 50.57586 | 13598 ft | 330 kts | 87° |
| 2026-04-27 17:40 | 27.01470 | 50.60062 | 13338 ft | 322 kts | 65° |
| 2026-04-27 17:40 | 27.02635 | 50.62153 | 13083 ft | 312 kts | 43° |
| 2026-04-27 17:41 | 27.04303 | 50.63638 | 12833 ft | 301 kts | 24° |
| 2026-04-27 17:41 | 27.06231 | 50.64408 | 12582 ft | 290 kts | 5° |
| 2026-04-27 17:41 | 27.08200 | 50.64454 | 12337 ft | 279 kts | 347° |
| 2026-04-27 17:41 | 27.10021 | 50.63848 | 12124 ft | 268 kts | 330° |
| 2026-04-27 17:42 | 27.11598 | 50.62836 | 12051 ft | 254 kts | 319° |
| 2026-04-27 17:42 | 27.12804 | 50.61417 | 12067 ft | 263 kts | 298° |
| 2026-04-27 17:42 | 27.13420 | 50.59425 | 12063 ft | 278 kts | 274° |
| 2026-04-27 17:42 | 27.13153 | 50.57274 | 12064 ft | 284 kts | 248° |
| 2026-04-27 17:43 | 27.11995 | 50.55478 | 12061 ft | 290 kts | 221° |
| 2026-04-27 17:43 | 27.10167 | 50.54487 | 12061 ft | 300 kts | 194° |
| 2026-04-27 17:43 | 27.08069 | 50.54591 | 12058 ft | 309 kts | 169° |
| 2026-04-27 17:43 | 27.05979 | 50.55187 | 12056 ft | 310 kts | 172° |
| 2026-04-27 17:44 | 27.03858 | 50.55591 | 12058 ft | 309 kts | 176° |
| 2026-04-27 17:44 | 27.01736 | 50.55896 | 12056 ft | 305 kts | 177° |
| 2026-04-27 17:44 | 26.99681 | 50.56177 | 12049 ft | 291 kts | 177° |
| 2026-04-27 17:44 | 26.97694 | 50.56441 | 12053 ft | 284 kts | 181° |
| 2026-04-27 17:45 | 26.95732 | 50.56485 | 12055 ft | 282 kts | 183° |
| 2026-04-27 17:45 | 26.93797 | 50.56542 | 12055 ft | 282 kts | 182° |
| 2026-04-27 17:45 | 26.91866 | 50.56623 | 12049 ft | 271 kts | 182° |
| 2026-04-27 17:45 | 26.89999 | 50.56712 | 12049 ft | 261 kts | 182° |
| 2026-04-27 17:46 | 26.88216 | 50.56798 | 12050 ft | 259 kts | 182° |
| 2026-04-27 17:46 | 26.86396 | 50.56883 | 12050 ft | 258 kts | 182° |
| 2026-04-27 17:46 | 26.84625 | 50.57001 | 12051 ft | 260 kts | 174° |
| 2026-04-27 17:46 | 26.82945 | 50.57770 | 11885 ft | 267 kts | 146° |
| 2026-04-27 17:47 | 26.81607 | 50.59227 | 11595 ft | 269 kts | 134° |
| 2026-04-27 17:47 | 26.80777 | 50.60290 | 11411 ft | 269 kts | 133° |
| 2026-04-27 17:47 | 26.79177 | 50.62396 | 11060 ft | 267 kts | 133° |
| 2026-04-27 17:47 | 26.77982 | 50.63973 | 10816 ft | 264 kts | 133° |
| 2026-04-27 17:48 | 26.76778 | 50.65551 | 10566 ft | 262 kts | 136° |
| 2026-04-27 17:48 | 26.75364 | 50.66738 | 10273 ft | 255 kts | 160° |
| 2026-04-27 17:48 | 26.73695 | 50.67313 | 9984 ft | 250 kts | 169° |
| 2026-04-27 17:48 | 26.71987 | 50.67798 | 9686 ft | 250 kts | 170° |
| 2026-04-27 17:49 | 26.70329 | 50.68263 | 9384 ft | 248 kts | 170° |
| 2026-04-27 17:49 | 26.68637 | 50.68737 | 9072 ft | 247 kts | 169° |
| 2026-04-27 17:49 | 26.66997 | 50.69199 | 8771 ft | 246 kts | 169° |
| 2026-04-27 17:49 | 26.65341 | 50.69666 | 8462 ft | 245 kts | 169° |
| 2026-04-27 17:50 | 26.63696 | 50.70131 | 8150 ft | 243 kts | 169° |
| 2026-04-27 17:50 | 26.60427 | 50.71051 | 7534 ft | 241 kts | 169° |
| 2026-04-27 17:50 | 26.58799 | 50.71487 | 7225 ft | 239 kts | 175° |
| 2026-04-27 17:51 | 26.57159 | 50.71532 | 6910 ft | 236 kts | 184° |
| 2026-04-27 17:51 | 26.55519 | 50.71502 | 6616 ft | 235 kts | 184° |
| 2026-04-27 17:51 | 26.53887 | 50.71472 | 6313 ft | 235 kts | 184° |
| 2026-04-27 17:51 | 26.52258 | 50.71442 | 6008 ft | 234 kts | 184° |
| 2026-04-27 17:52 | 26.50637 | 50.71412 | 5727 ft | 232 kts | 184° |
| 2026-04-27 17:52 | 26.49032 | 50.71382 | 5446 ft | 229 kts | 184° |
| 2026-04-27 17:52 | 26.47469 | 50.71355 | 5342 ft | 220 kts | 184° |
| 2026-04-27 17:52 | 26.46467 | 50.71338 | 5269 ft | 215 kts | 184° |
| 2026-04-27 17:53 | 26.44511 | 50.71296 | 5090 ft | 206 kts | 187° |
| 2026-04-27 17:53 | 26.43134 | 50.70959 | 4897 ft | 200 kts | 205° |
| 2026-04-27 17:53 | 26.41952 | 50.70183 | 4677 ft | 197 kts | 228° |
| 2026-04-27 17:53 | 26.41366 | 50.68851 | 4463 ft | 195 kts | 264° |
| 2026-04-27 17:54 | 26.41651 | 50.67382 | 4200 ft | 200 kts | 295° |
| 2026-04-27 17:54 | 26.42412 | 50.66062 | 3924 ft | 204 kts | 302° |
| 2026-04-27 17:54 | 26.43256 | 50.64772 | 3670 ft | 206 kts | 303° |
| 2026-04-27 17:54 | 26.44110 | 50.63490 | 3427 ft | 207 kts | 303° |
| 2026-04-27 17:55 | 26.44973 | 50.62201 | 3144 ft | 207 kts | 303° |
| 2026-04-27 17:55 | 26.45836 | 50.60915 | 3042 ft | 208 kts | 303° |
| 2026-04-27 17:55 | 26.46701 | 50.59621 | 3030 ft | 208 kts | 301° |
| 2026-04-27 17:55 | 26.47204 | 50.58165 | 3030 ft | 200 kts | 267° |
| 2026-04-27 17:56 | 26.46831 | 50.56733 | 3027 ft | 192 kts | 230° |
| 2026-04-27 17:56 | 26.45852 | 50.55727 | 3029 ft | 192 kts | 215° |
| 2026-04-27 17:56 | 26.44760 | 50.54872 | 3029 ft | 192 kts | 213° |
| 2026-04-27 17:56 | 26.43652 | 50.54040 | 3033 ft | 193 kts | 213° |
| 2026-04-27 17:57 | 26.42539 | 50.53204 | 3030 ft | 192 kts | 213° |
| 2026-04-27 17:57 | 26.41436 | 50.52372 | 3030 ft | 192 kts | 213° |
| 2026-04-27 17:57 | 26.40330 | 50.51541 | 3031 ft | 192 kts | 213° |
| 2026-04-27 17:57 | 26.39168 | 50.50821 | 3026 ft | 191 kts | 199° |
| 2026-04-27 17:58 | 26.37893 | 50.50422 | 2949 ft | 190 kts | 194° |
| 2026-04-27 17:58 | 26.36607 | 50.50098 | 2709 ft | 190 kts | 189° |
| 2026-04-27 17:58 | 26.35298 | 50.50205 | 2456 ft | 193 kts | 161° |
| 2026-04-27 17:58 | 26.34195 | 50.51052 | 2218 ft | 195 kts | 132° |
| 2026-04-27 17:59 | 26.33456 | 50.52278 | 1961 ft | 190 kts | 126° |
| 2026-04-27 17:59 | 26.32760 | 50.53503 | 1710 ft | 182 kts | 125° |
| 2026-04-27 17:59 | 26.32093 | 50.54668 | 1372 ft | 171 kts | 124° |
| 2026-04-27 17:59 | 26.31479 | 50.55735 | 1294 ft | 154 kts | 126° |
| 2026-04-27 18:00 | 26.30929 | 50.56691 | 1087 ft | 141 kts | 126° |
| 2026-04-27 18:00 | 26.30408 | 50.57595 | 907 ft | 136 kts | 125° |
| 2026-04-27 18:00 | 26.29898 | 50.58479 | 746 ft | 135 kts | 124° |
| 2026-04-27 18:00 | 26.29395 | 50.59354 | 557 ft | 136 kts | 123° |
| 2026-04-27 18:01 | 26.28878 | 50.60249 | 383 ft | 136 kts | 124° |
| 2026-04-27 18:01 | 26.28535 | 50.60841 | 283 ft | 137 kts | 123° |
| 2026-04-27 18:01 | 26.28030 | 50.61731 | 108 ft | 136 kts | 123° |
| 2026-04-27 18:01 | 26.27398 | 50.62819 | 22 ft | 108 kts | 123° |
| 2026-04-27 18:02 | 26.27085 | 50.63358 | 17 ft | 58 kts | 123° |
| 2026-04-27 18:02 | 26.26970 | 50.63556 | 18 ft | 40 kts | 123° |
| 2026-04-27 18:02 | 26.26833 | 50.63734 | 19 ft | 24 kts | 175° |
| 2026-04-27 18:02 | 26.26708 | 50.63760 | 19 ft | 7 kts | 201° |
| 2026-04-27 18:03 | 26.26688 | 50.63734 | 21 ft | 6 kts | 247° |
| 2026-04-27 18:03 | 26.26693 | 50.63694 | 19 ft | 5 kts | 292° |
| 2026-04-27 18:03 | 26.26706 | 50.63664 | 19 ft | 6 kts | 297° |
| 2026-04-27 18:03 | 26.26744 | 50.63598 | 19 ft | 15 kts | 303° |
| 2026-04-27 18:04 | 26.26809 | 50.63484 | 19 ft | 18 kts | 301° |
| 2026-04-27 18:04 | 26.26823 | 50.63400 | 20 ft | 13 kts | 247° |
| 2026-04-27 18:04 | 26.26800 | 50.63293 | 20 ft | 16 kts | 295° |
| 2026-04-27 18:04 | 26.26863 | 50.63185 | 21 ft | 18 kts | 303° |
| 2026-04-27 18:05 | 26.26933 | 50.63066 | 19 ft | 19 kts | 302° |
| 2026-04-27 18:05 | 26.27000 | 50.62948 | 20 ft | 15 kts | 302° |
| 2026-04-27 18:05 | 26.27025 | 50.62905 | 19 ft | 4 kts | 302° |
| 2026-04-27 18:05 | 26.27038 | 50.62882 | 19 ft | 3 kts | 302° |
| 2026-04-27 18:06 | 26.27039 | 50.62865 | 19 ft | 1 kts | 255° |
| 2026-04-27 18:06 | 26.27022 | 50.62850 | 20 ft | 6 kts | 215° |
| 2026-04-27 18:06 | 26.26990 | 50.62826 | 21 ft | 5 kts | 212° |
| 2026-04-27 18:06 | 26.26975 | 50.62816 | 19 ft | 0 kts | 212° |